Wheat Ridge, CO (80033)

1:47 PM MST on January 28, 2015 (GMT -0700)
Crown Hill Park | Change Station
CLOSE
Current Station
Personal Weather Station
Location: Wheat Ridge, CO
Elevation: 5480 ft
Nearby Weather Stations

Elev 5480 ft 39.77 °N, 105.10 °W | Updated 10 minutes ago

Clear
Clear
59.0 °F
Feels Like 59.0 °F
N
9.0
Wind Variable Wind from NE

Today
High -- | Low -- °F
--% Chance of Precip.
Yesterday
High -- | Low -- °F
Precip. -- in
7:12 AM 5:15 PM
Waxing Gibbous, 67% visible
Pressure 30.01 in
Visibility 60.0 miles
Clouds Few 6000 ft
Dew Point 25 °F
Humidity 27%
Rainfall 0.00 in
Snow Depth Not available.
UV 3 out of 12
Pollen 2.20 out of 12
Air Quality Not available.
Flu Activity Not available.
METAR KBJC 281953Z 28031G44KT 60SM FEW060 SCT12 14/M07 A3001 RMK PRESFR

More Conditions Fewer Conditions

Pressure 30.01 in
Visibility 60.0 miles
Clouds Few 6000 ft
Dew Point 25 °F
Humidity 27%
Rainfall 0.00 in
Snow Depth Not available.
UV 3 out of 12
Pollen 2.20 out of 12
Air Quality Not available.
Flu Activity Not available.
METAR KBJC 281953Z 28031G44KT 60SM FEW060 SCT12 14/M07 A3001 RMK PRESFR

More Conditions Fewer Conditions

10-Day Weather Forecast

Almanac

Astronomy

Jan. 28, 2015 Rise Set
Actual Time
Civil Twilight
Nautical Twilight
Astronomical Twilight
Moon
Length of Visible Light
Length of Day
Tomorrow will be .
, % of the Moon is Illuminated

Today's Extremes

State Highs State Lows

Community

WunderPhotos

Upload Photos

1,791,252 photos uploaded!

WunderBlogs® & News

Nearby

Air Quality

  Air Quality AQ Index Pollutant
Not available.

Snow Depth

Station Depth Elevation

Earthquake Activity

City Distance Mag. Time & Date
Minimum magnitude displayed is 2.5.

Coastal Water Temperatures

Place Temperature

Nearby Weather Stations